Time;durP1;ratioP1;P1;durP2;ratioP2;P2;SDS_P1;SDS_P2;PMS_P1;PMS_P2;Temp;Humidity;BMP_temperature;BMP_pressure;BME280_temperature;BME280_humidity;BME280_pressure;Samples;Min_cycle;Max_cycle;Signal;HPM_P1;HPM_P2
2022/01/13 00:02:26;;;;;;;174.80;43.72;;;;;;;;;;5027973;28;20025;-68
2022/01/13 00:04:52;;;;;;;184.52;45.65;;;;;;;;;;5027549;28;20112;-68
2022/01/13 00:07:18;;;;;;;140.68;42.97;;;;;;;;;;5028191;28;20108;-69
2022/01/13 00:09:44;;;;;;;235.50;47.35;;;;;;;;;;5027866;28;20449;-68
2022/01/13 00:12:12;;;;;;;155.57;43.47;;;;;;;;;;5026013;28;20116;-69
2022/01/13 00:14:51;;;;;;;130.45;41.55;;;;;;;;;;5027766;28;20028;-68
2022/01/13 00:20:07;;;;;;;172.70;43.47;;;;;;;;;;5027413;28;20033;-69
2022/01/13 00:25:01;;;;;;;132.65;43.38;;;;;;;;;;5027955;28;20522;-69
2022/01/13 00:27:29;;;;;;;125.97;41.75;;;;;;;;;;5027993;28;20048;-69
2022/01/13 00:29:58;;;;;;;146.75;45.63;;;;;;;;;;5030938;28;20025;-69
2022/01/13 00:32:28;;;;;;;137.18;44.63;;;;;;;;;;5030890;28;20036;-68
2022/01/13 00:34:54;;;;;;;156.57;44.05;;;;;;;;;;5031586;28;20033;-68
2022/01/13 00:37:20;;;;;;;176.18;45.30;;;;;;;;;;5030244;28;20041;-69
2022/01/13 00:39:46;;;;;;;260.08;52.40;;;;;;;;;;5031402;28;20021;-68
2022/01/13 00:42:16;;;;;;;202.43;46.33;;;;;;;;;;5028613;28;20495;-68
2022/01/13 00:44:43;;;;;;;384.90;53.65;;;;;;;;;;5030947;28;20049;-68
2022/01/13 00:47:10;;;;;;;417.83;58.92;;;;;;;;;;5031059;28;20132;-69
2022/01/13 00:49:36;;;;;;;243.23;49.38;;;;;;;;;;5030801;28;20053;-68
2022/01/13 00:52:03;;;;;;;165.98;45.88;;;;;;;;;;5030649;28;20108;-69
2022/01/13 00:54:32;;;;;;;223.38;48.63;;;;;;;;;;5030586;28;20143;-69
2022/01/13 00:56:58;;;;;;;341.13;54.65;;;;;;;;;;5030602;28;20976;-69
2022/01/13 00:59:26;;;;;;;177.73;46.30;;;;;;;;;;5031065;28;20503;-67
2022/01/13 01:01:54;;;;;;;181.32;46.30;;;;;;;;;;5030776;28;20029;-69
2022/01/13 01:04:20;;;;;;;170.13;48.40;;;;;;;;;;5030966;28;20025;-68
2022/01/13 01:06:47;;;;;;;188.63;47.38;;;;;;;;;;5030900;28;20018;-68
2022/01/13 01:09:16;;;;;;;243.13;49.90;;;;;;;;;;5030499;28;20029;-68
2022/01/13 01:11:47;;;;;;;309.35;53.83;;;;;;;;;;5030677;28;20030;-69
2022/01/13 01:14:15;;;;;;;312.05;50.13;;;;;;;;;;5030787;28;20018;-68
2022/01/13 01:16:41;;;;;;;156.02;44.10;;;;;;;;;;5030360;28;20569;-68
2022/01/13 01:19:09;;;;;;;151.80;41.17;;;;;;;;;;5030520;28;20029;-69
2022/01/13 01:27:15;;;;;;;255.93;49.40;;;;;;;;;;4988571;28;20037;-69
2022/01/13 01:29:50;;;;;;;208.02;45.08;;;;;;;;;;5025118;28;20517;-69
2022/01/13 01:32:17;;;;;;;345.83;54.38;;;;;;;;;;5029868;28;20479;-69
2022/01/13 01:34:56;;;;;;;287.75;51.03;;;;;;;;;;5030371;28;20372;-69
2022/01/13 01:37:27;;;;;;;136.27;40.87;;;;;;;;;;5030161;28;20048;-69
2022/01/13 01:39:54;;;;;;;328.25;53.70;;;;;;;;;;5030184;28;20026;-69
2022/01/13 01:42:20;;;;;;;161.48;43.03;;;;;;;;;;5030491;28;20096;-68
2022/01/13 01:44:48;;;;;;;173.65;44.92;;;;;;;;;;5029909;28;20040;-68
2022/01/13 01:47:16;;;;;;;153.93;38.10;;;;;;;;;;5030143;28;20029;-67
2022/01/13 01:49:43;;;;;;;156.23;38.50;;;;;;;;;;5030354;28;20051;-68
2022/01/13 01:52:11;;;;;;;139.68;37.70;;;;;;;;;;5029985;28;20121;-68
2022/01/13 01:54:37;;;;;;;311.10;48.25;;;;;;;;;;5029571;28;20093;-68
2022/01/13 01:57:04;;;;;;;224.07;42.90;;;;;;;;;;5030079;28;20511;-68
2022/01/13 01:59:32;;;;;;;258.27;43.58;;;;;;;;;;5029716;28;20041;-68
2022/01/13 02:01:59;;;;;;;197.45;40.45;;;;;;;;;;5029906;28;20033;-69
2022/01/13 02:04:26;;;;;;;156.50;37.65;;;;;;;;;;5029173;28;20828;-69
2022/01/13 02:06:54;;;;;;;148.48;42.55;;;;;;;;;;5029748;28;20353;-70
2022/01/13 02:09:20;;;;;;;239.13;44.30;;;;;;;;;;5028446;28;20029;-69
2022/01/13 02:11:51;;;;;;;158.85;39.42;;;;;;;;;;5029730;28;20391;-69
2022/01/13 02:17:03;;;;;;;150.75;38.40;;;;;;;;;;5029315;28;20049;-69
2022/01/13 02:19:30;;;;;;;174.70;38.53;;;;;;;;;;5029412;28;20029;-69
2022/01/13 02:21:56;;;;;;;212.82;42.70;;;;;;;;;;5029107;28;20032;-69
2022/01/13 02:24:22;;;;;;;179.57;38.55;;;;;;;;;;5029397;28;20547;-69
2022/01/13 02:26:49;;;;;;;255.05;44.95;;;;;;;;;;5029412;28;20048;-68
2022/01/13 02:29:15;;;;;;;144.45;40.05;;;;;;;;;;5029689;28;20116;-70
2022/01/13 02:31:41;;;;;;;289.98;46.30;;;;;;;;;;5029650;28;20388;-67
2022/01/13 02:34:07;;;;;;;133.90;37.55;;;;;;;;;;5029452;28;20113;-70
2022/01/13 02:36:37;;;;;;;259.55;43.03;;;;;;;;;;5028982;28;20035;-70
2022/01/13 02:39:04;;;;;;;139.05;37.20;;;;;;;;;;5029506;28;20063;-69
2022/01/13 02:41:31;;;;;;;269.85;38.95;;;;;;;;;;5028925;28;20014;-69
2022/01/13 02:43:58;;;;;;;225.48;44.80;;;;;;;;;;5029096;28;20025;-69
2022/01/13 02:49:10;;;;;;;236.50;43.40;;;;;;;;;;5029046;28;20037;-69
2022/01/13 02:51:36;;;;;;;231.95;39.65;;;;;;;;;;5027570;28;20136;-69
2022/01/13 02:54:03;;;;;;;180.23;37.55;;;;;;;;;;5029003;28;20059;-69
2022/01/13 02:56:29;;;;;;;114.95;34.55;;;;;;;;;;5028591;28;20028;-70
2022/01/13 02:58:56;;;;;;;172.27;33.65;;;;;;;;;;5029182;28;20034;-68
2022/01/13 03:01:22;;;;;;;148.13;32.85;;;;;;;;;;5028697;28;20026;-68
2022/01/13 03:03:48;;;;;;;132.07;31.92;;;;;;;;;;5028347;28;20595;-68
2022/01/13 03:06:16;;;;;;;261.92;36.60;;;;;;;;;;5028509;28;20029;-68
2022/01/13 03:08:46;;;;;;;103.72;31.67;;;;;;;;;;5028719;28;20028;-69
2022/01/13 03:11:13;;;;;;;199.80;34.58;;;;;;;;;;5028451;28;20392;-68
2022/01/13 03:13:39;;;;;;;107.63;30.63;;;;;;;;;;5029040;28;20017;-69
2022/01/13 03:16:07;;;;;;;216.48;34.17;;;;;;;;;;5028396;28;20029;-69
2022/01/13 03:18:33;;;;;;;145.10;32.40;;;;;;;;;;5028084;28;20393;-69
2022/01/13 03:20:59;;;;;;;126.60;29.20;;;;;;;;;;5028105;28;20052;-69
2022/01/13 03:23:25;;;;;;;100.00;29.08;;;;;;;;;;5028409;28;20850;-68
2022/01/13 03:25:51;;;;;;;106.80;25.42;;;;;;;;;;5028562;28;20021;-68
2022/01/13 03:28:28;;;;;;;286.85;36.03;;;;;;;;;;5028160;28;20023;-68
2022/01/13 03:30:55;;;;;;;96.95;26.25;;;;;;;;;;5028052;28;20060;-68
2022/01/13 03:33:21;;;;;;;118.10;26.25;;;;;;;;;;5028126;28;20084;-68
2022/01/13 03:35:47;;;;;;;135.60;27.38;;;;;;;;;;5028364;28;20033;-69
2022/01/13 03:38:13;;;;;;;237.60;35.03;;;;;;;;;;5026548;28;20460;-69
2022/01/13 03:40:39;;;;;;;147.45;32.72;;;;;;;;;;5027935;28;20096;-69
2022/01/13 03:43:05;;;;;;;187.82;31.30;;;;;;;;;;5028035;28;20026;-69
2022/01/13 03:45:32;;;;;;;143.63;28.05;;;;;;;;;;5028526;28;20064;-69
2022/01/13 03:47:58;;;;;;;232.88;33.22;;;;;;;;;;5028113;28;20068;-69
2022/01/13 03:50:24;;;;;;;172.18;29.17;;;;;;;;;;5028039;28;20030;-69
2022/01/13 03:53:02;;;;;;;205.00;30.75;;;;;;;;;;5027783;28;20056;-68
2022/01/13 03:55:40;;;;;;;93.57;27.63;;;;;;;;;;5027772;28;20080;-69
2022/01/13 03:58:25;;;;;;;307.02;39.42;;;;;;;;;;5027965;28;20030;-69
2022/01/13 04:01:10;;;;;;;206.82;31.80;;;;;;;;;;5027972;28;20037;-69
2022/01/13 04:03:37;;;;;;;114.88;29.55;;;;;;;;;;5028764;28;20492;-68
2022/01/13 04:06:04;;;;;;;138.77;31.35;;;;;;;;;;5032185;28;20025;-68
2022/01/13 04:08:31;;;;;;;115.63;30.52;;;;;;;;;;5031449;28;20028;-69
2022/01/13 04:11:18;;;;;;;185.65;33.30;;;;;;;;;;5032064;28;20029;-69
2022/01/13 04:13:59;;;;;;;91.13;28.40;;;;;;;;;;5029901;28;20499;-68
2022/01/13 04:16:27;;;;;;;151.25;30.80;;;;;;;;;;5031274;28;20147;-68
2022/01/13 04:18:56;;;;;;;110.65;29.40;;;;;;;;;;5031864;28;20025;-69
2022/01/13 04:21:22;;;;;;;206.05;34.97;;;;;;;;;;5031950;28;20026;-69
2022/01/13 04:23:49;;;;;;;195.40;35.65;;;;;;;;;;5031805;28;20029;-68
2022/01/13 04:26:18;;;;;;;135.80;31.25;;;;;;;;;;5031448;28;20035;-69
2022/01/13 04:28:45;;;;;;;163.52;31.88;;;;;;;;;;5031547;28;20049;-69
2022/01/13 04:31:11;;;;;;;176.18;34.42;;;;;;;;;;5031743;28;20415;-68
2022/01/13 04:33:38;;;;;;;332.60;38.70;;;;;;;;;;5031037;28;20100;-70
2022/01/13 04:36:05;;;;;;;170.32;36.13;;;;;;;;;;5031967;28;20456;-69
2022/01/13 04:38:31;;;;;;;166.77;34.83;;;;;;;;;;5031349;28;20171;-68
2022/01/13 04:41:00;;;;;;;169.05;33.75;;;;;;;;;;5031738;28;20071;-69
2022/01/13 04:43:29;;;;;;;121.53;30.55;;;;;;;;;;5031874;28;20053;-70
2022/01/13 04:45:55;;;;;;;141.45;31.13;;;;;;;;;;5031180;28;20108;-68
2022/01/13 04:48:21;;;;;;;132.52;29.38;;;;;;;;;;5031270;28;20032;-69
2022/01/13 04:50:47;;;;;;;136.57;30.55;;;;;;;;;;5030632;28;20105;-69
2022/01/13 04:53:14;;;;;;;113.35;29.65;;;;;;;;;;5029709;28;20132;-69
2022/01/13 04:55:49;;;;;;;182.02;30.17;;;;;;;;;;5030534;28;20152;-69
2022/01/13 04:58:15;;;;;;;164.00;32.55;;;;;;;;;;5030779;28;20025;-69
2022/01/13 05:00:44;;;;;;;270.30;37.40;;;;;;;;;;5030069;28;20493;-68
2022/01/13 05:03:10;;;;;;;216.32;37.13;;;;;;;;;;5029903;28;20021;-70
2022/01/13 05:05:36;;;;;;;116.68;30.65;;;;;;;;;;5030477;28;20033;-68
2022/01/13 05:08:02;;;;;;;215.95;33.85;;;;;;;;;;5030382;28;20065;-69
2022/01/13 05:10:28;;;;;;;189.65;35.97;;;;;;;;;;5030001;28;20060;-69
2022/01/13 05:13:23;;;;;;;125.93;33.97;;;;;;;;;;5030251;28;20033;-69
2022/01/13 05:37:47;;;;;;;140.20;32.10;;;;;;;;;;5030787;28;20103;-68
2022/01/13 05:40:46;;;;;;;140.73;28.80;;;;;;;;;;5030907;28;20025;-68
2022/01/13 05:43:12;;;;;;;102.93;26.48;;;;;;;;;;5030646;28;20045;-68
2022/01/13 05:45:39;;;;;;;229.50;33.67;;;;;;;;;;5029500;28;20131;-69
2022/01/13 05:48:06;;;;;;;93.85;26.27;;;;;;;;;;5030089;28;20031;-69
2022/01/13 05:50:32;;;;;;;295.13;39.22;;;;;;;;;;5030343;28;20467;-70
2022/01/13 05:52:58;;;;;;;116.90;28.65;;;;;;;;;;5029557;28;20099;-69
2022/01/13 05:55:24;;;;;;;84.57;26.75;;;;;;;;;;5029866;28;20376;-69
2022/01/13 05:57:51;;;;;;;201.52;31.80;;;;;;;;;;5029975;28;20535;-69
2022/01/13 06:00:18;;;;;;;100.43;27.52;;;;;;;;;;5029934;28;20033;-69
2022/01/13 06:02:45;;;;;;;144.35;29.00;;;;;;;;;;5029392;28;20036;-69
2022/01/13 06:05:11;;;;;;;113.47;28.83;;;;;;;;;;5029637;28;20034;-69
2022/01/13 06:07:37;;;;;;;203.55;31.98;;;;;;;;;;5029115;28;20134;-69
2022/01/13 06:10:04;;;;;;;236.55;35.88;;;;;;;;;;5029592;28;20021;-69
2022/01/13 06:12:37;;;;;;;93.72;28.85;;;;;;;;;;5029216;28;20037;-69
2022/01/13 06:15:04;;;;;;;103.03;26.45;;;;;;;;;;5029560;28;20705;-69
2022/01/13 06:17:30;;;;;;;117.15;27.42;;;;;;;;;;5029152;28;20124;-69
2022/01/13 06:19:58;;;;;;;107.80;25.95;;;;;;;;;;5029108;28;20518;-68
2022/01/13 06:22:24;;;;;;;95.88;27.80;;;;;;;;;;5029347;28;20108;-68
2022/01/13 06:24:52;;;;;;;125.10;28.27;;;;;;;;;;5029592;28;20116;-68
2022/01/13 06:27:18;;;;;;;204.95;29.92;;;;;;;;;;5027965;28;20108;-67
2022/01/13 06:29:44;;;;;;;114.13;27.10;;;;;;;;;;5029169;28;20140;-68
2022/01/13 06:32:10;;;;;;;151.05;31.73;;;;;;;;;;5029027;28;20740;-69
2022/01/13 06:34:36;;;;;;;111.15;27.00;;;;;;;;;;5028156;28;20025;-69
2022/01/13 06:37:03;;;;;;;99.45;26.75;;;;;;;;;;5029211;28;20029;-69
2022/01/13 06:39:29;;;;;;;217.73;31.75;;;;;;;;;;5028971;28;20100;-69
2022/01/13 06:41:55;;;;;;;80.88;24.88;;;;;;;;;;5029247;28;20116;-69
2022/01/13 06:44:21;;;;;;;89.28;25.88;;;;;;;;;;5028236;28;20113;-69
2022/01/13 06:46:47;;;;;;;189.18;28.48;;;;;;;;;;5028368;28;20116;-69
2022/01/13 06:49:13;;;;;;;108.03;25.63;;;;;;;;;;5029000;28;20025;-69
2022/01/13 06:51:39;;;;;;;137.05;29.92;;;;;;;;;;5028312;28;20135;-70
2022/01/13 06:54:05;;;;;;;172.32;32.67;;;;;;;;;;5028770;28;20033;-69
2022/01/13 06:56:31;;;;;;;328.20;39.63;;;;;;;;;;5028415;28;20037;-68
2022/01/13 06:58:57;;;;;;;171.40;34.05;;;;;;;;;;5028411;28;20025;-69
2022/01/13 07:01:23;;;;;;;138.32;31.70;;;;;;;;;;5028568;28;20057;-70
2022/01/13 07:03:50;;;;;;;135.40;30.58;;;;;;;;;;5028654;28;20027;-69
2022/01/13 07:06:16;;;;;;;145.10;28.73;;;;;;;;;;5028392;28;20087;-70
2022/01/13 07:08:42;;;;;;;290.10;39.50;;;;;;;;;;5028058;28;20578;-69
2022/01/13 07:11:08;;;;;;;99.47;26.33;;;;;;;;;;5028494;28;20061;-69
2022/01/13 07:13:34;;;;;;;97.22;26.60;;;;;;;;;;5028056;28;21137;-69
2022/01/13 07:16:01;;;;;;;157.93;29.13;;;;;;;;;;5028271;28;20789;-67
2022/01/13 07:18:30;;;;;;;88.97;27.25;;;;;;;;;;5015584;28;20381;-69
2022/01/13 07:20:56;;;;;;;94.38;26.10;;;;;;;;;;5026621;28;20048;-69
2022/01/13 07:23:23;;;;;;;138.20;28.20;;;;;;;;;;5024987;28;20021;-69
2022/01/13 07:25:49;;;;;;;107.80;26.27;;;;;;;;;;5027554;28;20052;-69
2022/01/13 07:28:15;;;;;;;127.43;26.38;;;;;;;;;;5019590;28;20624;-68
2022/01/13 07:30:41;;;;;;;87.18;24.10;;;;;;;;;;5023616;28;20027;-69
2022/01/13 07:33:08;;;;;;;46.83;19.40;;;;;;;;;;5027408;28;20535;-68
2022/01/13 07:35:34;;;;;;;316.05;36.53;;;;;;;;;;5027900;28;20079;-69
2022/01/13 07:38:00;;;;;;;82.50;23.92;;;;;;;;;;5027437;28;20559;-70
2022/01/13 07:40:26;;;;;;;93.22;23.88;;;;;;;;;;5027574;28;20026;-70
2022/01/13 07:42:52;;;;;;;65.50;23.30;;;;;;;;;;5028142;28;20028;-70
2022/01/13 07:45:18;;;;;;;99.50;26.50;;;;;;;;;;5027452;28;20036;-70
2022/01/13 07:47:45;;;;;;;95.93;25.27;;;;;;;;;;5027958;28;20025;-69
2022/01/13 07:50:12;;;;;;;66.38;22.33;;;;;;;;;;5027865;28;20025;-69
2022/01/13 07:52:38;;;;;;;65.35;21.45;;;;;;;;;;5027102;28;20049;-70
2022/01/13 07:55:05;;;;;;;75.38;23.80;;;;;;;;;;5027568;28;20395;-70
2022/01/13 07:57:31;;;;;;;96.78;25.05;;;;;;;;;;5028116;28;20041;-71
2022/01/13 07:59:57;;;;;;;62.13;20.88;;;;;;;;;;5028251;28;20064;-70
2022/01/13 08:02:23;;;;;;;72.85;22.02;;;;;;;;;;5026352;28;20037;-70
2022/01/13 08:04:49;;;;;;;42.53;16.20;;;;;;;;;;5027839;28;20079;-70
2022/01/13 08:07:16;;;;;;;71.63;21.42;;;;;;;;;;5027802;28;20034;-69
2022/01/13 08:09:42;;;;;;;138.32;25.35;;;;;;;;;;5022381;28;20026;-71
2022/01/13 08:12:09;;;;;;;125.30;26.02;;;;;;;;;;5023980;28;20021;-69
2022/01/13 08:14:35;;;;;;;86.60;22.52;;;;;;;;;;5011307;28;20097;-69
2022/01/13 08:17:03;;;;;;;69.53;20.17;;;;;;;;;;5018168;28;20040;-69
2022/01/13 08:19:48;;;;;;;70.65;20.88;;;;;;;;;;5020581;28;20026;-70
2022/01/13 08:25:17;;;;;;;181.88;27.52;;;;;;;;;;5012523;28;20067;-69
2022/01/13 08:27:44;;;;;;;113.45;23.83;;;;;;;;;;5025183;28;20014;-70
2022/01/13 08:30:10;;;;;;;92.03;23.95;;;;;;;;;;5025513;28;20536;-69
2022/01/13 08:32:36;;;;;;;104.05;22.45;;;;;;;;;;5025284;28;20036;-69
2022/01/13 08:35:03;;;;;;;78.65;20.35;;;;;;;;;;5025836;28;20403;-70
2022/01/13 08:37:30;;;;;;;98.00;24.35;;;;;;;;;;5025983;28;20034;-70
2022/01/13 08:39:56;;;;;;;112.88;26.45;;;;;;;;;;5026881;28;20025;-69
2022/01/13 08:42:23;;;;;;;71.07;20.05;;;;;;;;;;5027361;28;20022;-69
2022/01/13 08:44:49;;;;;;;100.30;24.58;;;;;;;;;;5027359;28;20037;-69
2022/01/13 08:47:15;;;;;;;142.40;25.15;;;;;;;;;;5027272;28;20045;-71
2022/01/13 08:49:41;;;;;;;64.90;21.35;;;;;;;;;;5028357;28;20494;-69
2022/01/13 08:52:07;;;;;;;66.85;22.75;;;;;;;;;;5030851;28;20048;-69
2022/01/13 08:54:34;;;;;;;61.33;19.45;;;;;;;;;;5030715;28;20104;-69
2022/01/13 08:57:00;;;;;;;91.60;23.30;;;;;;;;;;5030550;28;20108;-69
2022/01/13 08:59:27;;;;;;;110.55;21.42;;;;;;;;;;5030425;28;20112;-70
2022/01/13 09:01:54;;;;;;;153.65;26.13;;;;;;;;;;5026840;28;20029;-69
2022/01/13 09:04:21;;;;;;;57.88;17.88;;;;;;;;;;5030589;28;20029;-70
2022/01/13 09:06:47;;;;;;;111.50;22.58;;;;;;;;;;5030643;28;20543;-70
2022/01/13 09:09:14;;;;;;;159.80;23.58;;;;;;;;;;5030088;28;20854;-70
2022/01/13 09:11:40;;;;;;;59.67;21.92;;;;;;;;;;5030402;28;20029;-70
2022/01/13 09:14:06;;;;;;;92.03;21.25;;;;;;;;;;5030556;28;20061;-70
2022/01/13 09:16:41;;;;;;;78.20;20.70;;;;;;;;;;5030688;28;20025;-70
2022/01/13 09:19:12;;;;;;;66.95;19.80;;;;;;;;;;5030158;28;20486;-70
2022/01/13 09:21:40;;;;;;;72.53;20.80;;;;;;;;;;5030736;28;20108;-70
2022/01/13 09:24:10;;;;;;;89.97;20.05;;;;;;;;;;5030344;28;20104;-70
2022/01/13 09:26:36;;;;;;;62.65;18.10;;;;;;;;;;5030265;28;20145;-69
2022/01/13 09:29:02;;;;;;;67.70;18.75;;;;;;;;;;5028677;28;20368;-70
2022/01/13 09:31:28;;;;;;;114.10;21.02;;;;;;;;;;5030187;28;20033;-69
2022/01/13 09:33:55;;;;;;;86.40;19.95;;;;;;;;;;5029770;28;20036;-68
2022/01/13 09:36:21;;;;;;;45.00;17.30;;;;;;;;;;5030176;28;20041;-69
2022/01/13 09:38:47;;;;;;;67.20;19.30;;;;;;;;;;5029888;28;20075;-70
2022/01/13 09:41:14;;;;;;;168.43;25.77;;;;;;;;;;5030177;28;20069;-70
2022/01/13 09:43:42;;;;;;;94.38;20.35;;;;;;;;;;5029493;28;20116;-70
2022/01/13 09:46:09;;;;;;;72.45;22.27;;;;;;;;;;5030190;28;20112;-70
2022/01/13 09:48:38;;;;;;;112.07;22.00;;;;;;;;;;5030028;28;20539;-70
2022/01/13 09:51:04;;;;;;;69.60;18.63;;;;;;;;;;5026914;28;20480;-71
2022/01/13 09:53:30;;;;;;;98.25;23.88;;;;;;;;;;5029787;28;20407;-71
2022/01/13 09:55:56;;;;;;;127.63;24.17;;;;;;;;;;5029539;28;20029;-70
2022/01/13 09:58:22;;;;;;;83.95;22.27;;;;;;;;;;5029445;28;20176;-70
2022/01/13 10:00:48;;;;;;;75.97;21.60;;;;;;;;;;5028600;28;20802;-71
2022/01/13 10:03:18;;;;;;;70.60;22.27;;;;;;;;;;5030159;28;20040;-70
2022/01/13 10:05:44;;;;;;;;;;;;;;;;;;5030000;28;20117;-71
2022/01/13 10:08:10;;;;;;;123.45;24.45;;;;;;;;;;5025824;28;20474;-70
2022/01/13 10:10:36;;;;;;;74.68;21.20;;;;;;;;;;5022511;28;20083;-71
2022/01/13 10:13:04;;;;;;;74.13;21.85;;;;;;;;;;5027344;28;20519;-71
2022/01/13 10:18:36;;;;;;;72.00;21.10;;;;;;;;;;5022112;28;20052;-72
2022/01/13 10:21:06;;;;;;;53.42;19.13;;;;;;;;;;5024125;28;20021;-71
2022/01/13 10:23:32;;;;;;;48.55;19.60;;;;;;;;;;5019055;28;20071;-71
2022/01/13 10:26:08;;;;;;;69.00;22.60;;;;;;;;;;5021568;28;20147;-70
2022/01/13 10:28:34;;;;;;;81.50;21.92;;;;;;;;;;5021425;28;20022;-71
2022/01/13 10:31:00;;;;;;;83.20;22.23;;;;;;;;;;5028054;28;20021;-70
2022/01/13 10:33:27;;;;;;;84.25;23.88;;;;;;;;;;5016536;28;20097;-71
2022/01/13 10:35:54;;;;;;;113.78;29.48;;;;;;;;;;5020088;28;20109;-71
2022/01/13 10:38:21;;;;;;;99.53;23.98;;;;;;;;;;5028838;28;20563;-71
2022/01/13 10:40:49;;;;;;;68.68;20.05;;;;;;;;;;5028441;28;20553;-70
2022/01/13 10:43:16;;;;;;;79.13;23.45;;;;;;;;;;5025577;28;20033;-70
2022/01/13 10:45:50;;;;;;;68.13;20.88;;;;;;;;;;5029065;28;20055;-70
2022/01/13 10:48:16;;;;;;;70.68;20.92;;;;;;;;;;5028746;28;20136;-70
2022/01/13 10:50:44;;;;;;;85.57;25.40;;;;;;;;;;5028650;28;20539;-71
2022/01/13 10:53:16;;;;;;;124.30;24.25;;;;;;;;;;5022526;28;20103;-71
2022/01/13 10:55:44;;;;;;;92.78;22.38;;;;;;;;;;5029703;28;20044;-71
2022/01/13 10:58:12;;;;;;;59.75;20.63;;;;;;;;;;5027826;28;20600;-71
2022/01/13 11:00:38;;;;;;;152.55;26.27;;;;;;;;;;5029441;28;20032;-70
2022/01/13 11:03:14;;;;;;;71.68;22.75;;;;;;;;;;5028443;28;20051;-71
2022/01/13 11:05:44;;;;;;;114.45;24.58;;;;;;;;;;5038104;28;20025;-71
2022/01/13 11:08:11;;;;;;;;;;;;;;;;;;5029761;28;20029;-70
2022/01/13 11:10:38;;;;;;;71.82;22.23;;;;;;;;;;5028026;28;20373;-70
2022/01/13 11:13:08;;;;;;;88.05;23.67;;;;;;;;;;5027887;28;20025;-70
2022/01/13 11:15:38;;;;;;;143.57;29.33;;;;;;;;;;5026094;28;20021;-71
2022/01/13 11:18:04;;;;;;;127.45;28.67;;;;;;;;;;5025351;28;20052;-70
2022/01/13 11:20:30;;;;;;;335.73;37.72;;;;;;;;;;5019023;28;20843;-70
2022/01/13 11:22:57;;;;;;;134.50;27.98;;;;;;;;;;5023911;28;20029;-70
2022/01/13 11:25:24;;;;;;;111.82;23.77;;;;;;;;;;5020347;28;20041;-71
2022/01/13 11:27:51;;;;;;;121.57;23.65;;;;;;;;;;5035924;28;20732;-71
2022/01/13 11:30:19;;;;;;;84.63;26.20;;;;;;;;;;5019103;28;20022;-71
2022/01/13 11:32:45;;;;;;;140.95;28.27;;;;;;;;;;5019614;28;20479;-72
2022/01/13 11:35:12;;;;;;;102.05;26.08;;;;;;;;;;5017873;28;20054;-70
2022/01/13 11:37:39;;;;;;;152.05;29.63;;;;;;;;;;5014259;28;20113;-71
2022/01/13 11:40:07;;;;;;;104.80;27.08;;;;;;;;;;5017575;28;20174;-70
2022/01/13 11:42:44;;;;;;;123.57;27.25;;;;;;;;;;5015370;28;20025;-71
2022/01/13 11:45:14;;;;;;;94.18;28.40;;;;;;;;;;5018377;28;20113;-70
2022/01/13 11:47:40;;;;;;;129.60;26.33;;;;;;;;;;5018855;28;20037;-71
2022/01/13 11:50:20;;;;;;;107.75;25.02;;;;;;;;;;5019488;28;20037;-72
2022/01/13 11:52:51;;;;;;;161.52;25.25;;;;;;;;;;5015328;28;20077;-71
2022/01/13 11:55:26;;;;;;;105.18;24.98;;;;;;;;;;5020841;28;20060;-70
2022/01/13 11:57:53;;;;;;;89.57;25.02;;;;;;;;;;5017847;28;20456;-70
2022/01/13 12:00:25;;;;;;;117.60;25.10;;;;;;;;;;5020563;28;20028;-70
2022/01/13 12:02:52;;;;;;;89.53;24.45;;;;;;;;;;5017214;28;20025;-70
2022/01/13 12:05:20;;;;;;;54.60;20.83;;;;;;;;;;5022069;28;20030;-72
2022/01/13 12:07:47;;;;;;;29.30;14.30;;;;;;;;;;5009373;28;20026;-71
2022/01/13 12:10:25;;;;;;;27.27;12.27;;;;;;;;;;5026182;28;20033;-70
2022/01/13 12:12:52;;;;;;;57.75;21.13;;;;;;;;;;5027419;28;20631;-70
2022/01/13 12:15:19;;;;;;;107.28;21.10;;;;;;;;;;5027960;28;20101;-70
2022/01/13 12:17:49;;;;;;;116.18;23.45;;;;;;;;;;5028035;28;20041;-70
2022/01/13 12:20:15;;;;;;;;;;;;;;;;;;5028106;28;20041;-70
2022/01/13 12:22:44;;;;;;;171.00;25.95;;;;;;;;;;5022993;28;19983;-74
2022/01/13 12:25:12;;;;;;;97.50;24.03;;;;;;;;;;5023211;28;20021;-74
2022/01/13 12:27:41;;;;;;;85.57;22.63;;;;;;;;;;5032228;28;20802;-73
2022/01/13 12:30:07;;;;;;;103.13;22.63;;;;;;;;;;5031624;28;20060;-74
2022/01/13 12:32:34;;;;;;;151.85;26.20;;;;;;;;;;5030513;28;20021;-73
2022/01/13 12:35:01;;;;;;;100.68;24.00;;;;;;;;;;5031456;28;20021;-72
2022/01/13 12:37:28;;;;;;;88.70;23.35;;;;;;;;;;5031290;28;20037;-75
2022/01/13 12:39:58;;;;;;;102.85;22.98;;;;;;;;;;5031847;28;20503;-76
2022/01/13 12:42:35;;;;;;;103.45;22.55;;;;;;;;;;5029361;28;20017;-78
2022/01/13 12:47:46;;;;;;;101.72;22.60;;;;;;;;;;5031372;28;20091;-76
2022/01/13 12:50:16;;;;;;;80.72;23.35;;;;;;;;;;5031378;28;20018;-76
2022/01/13 12:52:42;;;;;;;71.15;21.45;;;;;;;;;;5031017;28;20121;-77
2022/01/13 12:55:09;;;;;;;117.80;21.05;;;;;;;;;;5031217;28;20071;-79
2022/01/13 12:57:35;;;;;;;73.53;20.05;;;;;;;;;;5030484;28;20091;-77
2022/01/13 13:00:02;;;;;;;98.07;22.83;;;;;;;;;;5031191;28;20467;-76
2022/01/13 13:02:29;;;;;;;238.68;32.80;;;;;;;;;;5029182;28;20022;-76
2022/01/13 13:04:55;;;;;;;85.75;22.30;;;;;;;;;;5031046;28;20104;-77
2022/01/13 13:07:21;;;;;;;158.45;25.10;;;;;;;;;;5030496;28;20029;-76
2022/01/13 13:09:47;;;;;;;82.90;20.55;;;;;;;;;;5030958;28;20025;-77
2022/01/13 13:12:24;;;;;;;82.50;21.02;;;;;;;;;;5030564;28;20022;-77
2022/01/13 13:17:40;;;;;;;102.82;22.63;;;;;;;;;;5027752;28;20056;-76
2022/01/13 13:20:09;;;;;;;130.70;22.52;;;;;;;;;;5028640;28;20131;-76
2022/01/13 13:22:48;;;;;;;131.27;26.52;;;;;;;;;;5025180;28;20112;-77
2022/01/13 13:25:25;;;;;;;196.77;32.97;;;;;;;;;;5030503;28;20383;-75
2022/01/13 13:27:51;;;;;;;107.68;25.13;;;;;;;;;;5029887;28;20091;-75
2022/01/13 13:30:18;;;;;;;106.53;23.33;;;;;;;;;;5030612;28;20570;-75
2022/01/13 13:32:58;;;;;;;100.47;24.88;;;;;;;;;;5030041;28;20064;-75
2022/01/13 13:35:24;;;;;;;102.57;26.63;;;;;;;;;;5024078;28;20419;-75
2022/01/13 13:37:50;;;;;;;80.60;23.33;;;;;;;;;;5029848;28;20124;-74
2022/01/13 13:40:23;;;;;;;160.38;29.92;;;;;;;;;;5027514;28;20516;-74
2022/01/13 13:43:03;;;;;;;192.88;28.67;;;;;;;;;;5026410;28;20026;-75
2022/01/13 13:45:29;;;;;;;135.25;25.23;;;;;;;;;;5024965;28;20026;-75
2022/01/13 13:47:56;;;;;;;229.63;34.42;;;;;;;;;;5024988;28;20186;-75
2022/01/13 13:50:23;;;;;;;165.95;28.80;;;;;;;;;;5021094;28;20029;-72
2022/01/13 13:53:03;;;;;;;132.98;25.92;;;;;;;;;;5026471;28;20048;-72
2022/01/13 13:55:29;;;;;;;101.30;25.33;;;;;;;;;;5023822;28;20026;-72
2022/01/13 13:57:57;;;;;;;204.85;32.05;;;;;;;;;;5023588;28;20150;-72
2022/01/13 14:00:26;;;;;;;235.95;35.42;;;;;;;;;;5025020;28;20120;-71
2022/01/13 14:02:54;;;;;;;169.75;31.20;;;;;;;;;;5023053;28;20030;-71
2022/01/13 14:05:27;;;;;;;142.75;29.60;;;;;;;;;;5022348;28;20030;-71
2022/01/13 14:07:53;;;;;;;160.30;28.88;;;;;;;;;;5021463;28;20018;-70
2022/01/13 14:10:23;;;;;;;138.52;28.20;;;;;;;;;;5028811;28;20064;-71
2022/01/13 14:13:02;;;;;;;160.70;31.08;;;;;;;;;;5029061;28;20022;-72
2022/01/13 14:15:38;;;;;;;199.85;34.63;;;;;;;;;;5028354;28;20476;-72
2022/01/13 14:18:14;;;;;;;113.55;29.10;;;;;;;;;;5029602;28;20116;-71
2022/01/13 14:20:49;;;;;;;179.55;33.53;;;;;;;;;;5027937;28;20036;-71
2022/01/13 14:23:23;;;;;;;164.15;32.30;;;;;;;;;;5026668;28;20091;-71
2022/01/13 14:25:50;;;;;;;165.95;32.38;;;;;;;;;;5028734;28;20030;-72
2022/01/13 14:28:22;;;;;;;126.32;29.52;;;;;;;;;;5028849;28;20120;-72
2022/01/13 14:30:49;;;;;;;146.80;33.88;;;;;;;;;;5028771;28;20021;-72
2022/01/13 14:33:23;;;;;;;267.25;36.88;;;;;;;;;;5037951;28;20120;-71
2022/01/13 14:36:06;;;;;;;138.30;31.00;;;;;;;;;;5029728;28;20026;-72
2022/01/13 14:38:35;;;;;;;145.40;29.75;;;;;;;;;;5028753;28;20025;-71
2022/01/13 14:41:01;;;;;;;132.15;32.30;;;;;;;;;;5028676;28;20024;-71
2022/01/13 14:43:28;;;;;;;118.00;31.15;;;;;;;;;;5028448;28;20812;-72
2022/01/13 14:46:10;;;;;;;155.65;31.00;;;;;;;;;;5027977;28;20026;-72
2022/01/13 14:48:39;;;;;;;148.05;33.03;;;;;;;;;;5027967;28;20709;-71
2022/01/13 14:51:06;;;;;;;152.93;34.47;;;;;;;;;;5025200;28;20040;-71
2022/01/13 14:53:34;;;;;;;193.65;32.92;;;;;;;;;;5028339;28;20042;-71
2022/01/13 14:56:01;;;;;;;201.30;37.40;;;;;;;;;;5028701;28;20036;-72
2022/01/13 14:58:27;;;;;;;242.18;39.58;;;;;;;;;;5028692;28;20048;-72
2022/01/13 15:00:53;;;;;;;357.15;46.42;;;;;;;;;;5028340;28;20443;-71
2022/01/13 15:03:19;;;;;;;261.83;45.75;;;;;;;;;;5028348;28;20029;-72
2022/01/13 15:05:46;;;;;;;286.58;43.38;;;;;;;;;;5028590;28;20112;-72